Time;durP1;ratioP1;P1;durP2;ratioP2;P2;SDS_P1;SDS_P2;PMS_P1;PMS_P2;Temp;Humidity;BMP_temperature;BMP_pressure;BME280_temperature;BME280_humidity;BME280_pressure;Samples;Min_cycle;Max_cycle;Signal;HPM_P1;HPM_P2
2021/11/20 00:01:31;;;;;;;21.33;12.75;;;4.70;99.90;;;;;;5103239;28;20028;-81
2021/11/20 00:03:57;;;;;;;20.02;12.05;;;4.70;99.90;;;;;;5092967;28;20049;-81
2021/11/20 00:06:28;;;;;;;21.35;12.10;;;4.80;99.90;;;;;;5082812;28;20075;-80
2021/11/20 00:08:56;;;;;;;20.85;12.25;;;4.90;99.90;;;;;;5064372;28;20040;-82
2021/11/20 00:11:25;;;;;;;26.52;16.17;;;4.90;99.90;;;;;;5083569;28;20082;-82
2021/11/20 00:13:54;;;;;;;26.23;14.20;;;5.00;99.90;;;;;;5089771;28;20038;-82
2021/11/20 00:16:23;;;;;;;21.75;12.75;;;5.00;99.90;;;;;;5081376;28;20123;-82
2021/11/20 00:18:49;;;;;;;23.35;13.20;;;5.00;99.90;;;;;;5097937;28;20032;-81
2021/11/20 00:21:38;;;;;;;30.70;16.50;;;5.00;99.90;;;;;;5096705;28;20033;-82
2021/11/20 00:24:15;;;;;;;26.50;14.68;;;4.90;99.90;;;;;;5072476;28;20100;-82
2021/11/20 00:26:40;;;;;;;26.95;15.13;;;5.00;99.90;;;;;;5093778;28;20051;-83
2021/11/20 00:31:46;;;;;;;24.48;13.45;;;4.80;99.90;;;;;;5094999;28;20028;-78
2021/11/20 00:34:15;;;;;;;21.52;13.00;;;4.80;99.90;;;;;;5091888;28;20040;-80
2021/11/20 00:36:41;;;;;;;22.00;12.82;;;4.80;99.90;;;;;;5089661;28;20067;-81
2021/11/20 00:39:11;;;;;;;21.52;12.80;;;4.90;99.90;;;;;;5088027;28;20104;-82
2021/11/20 00:41:38;;;;;;;20.08;12.05;;;4.90;99.90;;;;;;5086627;28;20475;-82
2021/11/20 00:44:05;;;;;;;21.20;13.52;;;4.90;99.90;;;;;;5066108;28;20028;-82
2021/11/20 00:46:32;;;;;;;21.88;13.07;;;4.90;99.90;;;;;;5064471;28;20051;-81
2021/11/20 00:48:59;;;;;;;24.88;14.20;;;4.90;99.90;;;;;;5082442;28;20020;-81
2021/11/20 00:51:27;;;;;;;24.77;13.63;;;4.90;99.90;;;;;;5074606;28;20069;-83
2021/11/20 00:53:56;;;;;;;22.38;13.60;;;4.80;99.90;;;;;;5096519;28;20039;-82
2021/11/20 00:56:24;;;;;;;19.13;11.65;;;4.80;99.90;;;;;;5099683;28;20020;-81
2021/11/20 00:58:51;;;;;;;24.45;13.52;;;4.90;99.90;;;;;;5093341;28;20035;-80
2021/11/20 01:01:35;;;;;;;22.95;13.35;;;4.90;99.90;;;;;;5109484;28;20085;-82
2021/11/20 01:04:02;;;;;;;21.27;13.02;;;4.80;99.90;;;;;;5095035;28;20024;-80
2021/11/20 01:06:29;;;;;;;22.85;13.95;;;4.80;99.90;;;;;;5090147;28;20180;-80
2021/11/20 01:08:56;;;;;;;21.85;13.68;;;4.80;99.90;;;;;;5104404;28;20061;-82
2021/11/20 01:11:31;;;;;;;21.33;12.88;;;4.80;99.90;;;;;;5097274;28;20070;-81
2021/11/20 01:13:59;;;;;;;18.13;11.48;;;4.70;99.90;;;;;;5102633;28;20054;-82
2021/11/20 01:16:27;;;;;;;22.65;12.75;;;4.70;99.90;;;;;;5095783;28;20480;-81
2021/11/20 01:18:53;;;;;;;18.45;11.63;;;4.70;99.90;;;;;;5081030;28;20042;-82
2021/11/20 01:21:20;;;;;;;21.08;11.68;;;4.80;99.90;;;;;;5071585;28;20020;-82
2021/11/20 01:23:47;;;;;;;19.00;12.10;;;4.90;99.90;;;;;;5064840;28;20110;-82
2021/11/20 01:26:15;;;;;;;22.83;12.45;;;4.80;99.90;;;;;;5083098;28;20031;-82
2021/11/20 01:28:43;;;;;;;20.45;11.88;;;4.90;99.90;;;;;;5102889;28;20453;-82
2021/11/20 01:31:12;;;;;;;17.92;11.20;;;4.80;99.90;;;;;;5084431;28;20104;-81
2021/11/20 01:33:39;;;;;;;18.65;10.63;;;4.90;99.90;;;;;;5092620;28;20119;-80
2021/11/20 01:36:06;;;;;;;18.77;12.00;;;4.90;99.90;;;;;;5064456;28;20037;-82
2021/11/20 01:38:32;;;;;;;18.15;11.30;;;5.00;99.90;;;;;;5063748;28;20037;-82
2021/11/20 01:41:03;;;;;;;18.20;11.55;;;4.90;99.90;;;;;;5081903;28;20043;-84
2021/11/20 01:43:29;;;;;;;24.83;14.00;;;4.90;99.90;;;;;;5081324;28;20020;-82
2021/11/20 01:46:11;;;;;;;26.20;12.63;;;4.90;99.90;;;;;;5082153;28;20111;-83
2021/11/20 01:48:40;;;;;;;26.80;15.00;;;4.80;99.90;;;;;;5074405;28;20020;-81
2021/11/20 01:51:37;;;;;;;24.30;13.73;;;4.80;99.90;;;;;;5064871;28;20027;-81
2021/11/20 01:54:16;;;;;;;25.17;14.18;;;4.80;99.90;;;;;;5095777;28;20179;-82
2021/11/20 01:56:50;;;;;;;22.80;12.93;;;4.70;99.90;;;;;;5097393;28;20364;-83
2021/11/20 01:59:32;;;;;;;20.67;12.35;;;4.80;99.90;;;;;;5061690;28;20086;-81
2021/11/20 02:02:09;;;;;;;23.70;13.25;;;4.80;99.90;;;;;;5051559;28;20016;-81
2021/11/20 02:04:58;;;;;;;26.70;13.55;;;4.70;99.90;;;;;;5078612;28;20040;-81
2021/11/20 02:07:36;;;;;;;22.17;12.48;;;4.60;99.90;;;;;;5072850;28;20032;-80
2021/11/20 02:10:02;;;;;;;19.95;11.18;;;4.60;99.90;;;;;;5083387;28;20036;-80
2021/11/20 02:12:52;;;;;;;20.55;12.77;;;4.60;99.90;;;;;;5066207;28;20496;-82
2021/11/20 02:15:47;;;;;;;21.58;13.68;;;4.60;99.90;;;;;;5085336;28;20037;-81
2021/11/20 02:18:15;;;;;;;23.83;13.00;;;4.60;99.90;;;;;;5071353;28;20059;-82
2021/11/20 02:20:46;;;;;;;21.70;12.35;;;4.60;99.90;;;;;;5104305;28;20056;-82
2021/11/20 02:23:12;;;;;;;19.02;11.13;;;4.50;99.90;;;;;;5097155;28;20017;-80
2021/11/20 02:25:37;;;;;;;19.80;11.35;;;4.50;99.90;;;;;;5077232;28;20025;-82
2021/11/20 02:28:05;;;;;;;19.45;11.73;;;4.50;99.90;;;;;;5086729;28;20023;-80
2021/11/20 02:30:38;;;;;;;20.17;11.18;;;4.50;99.90;;;;;;5077599;28;20032;-78
2021/11/20 02:36:46;;;;;;;19.23;10.35;;;4.40;99.90;;;;;;5069748;28;20032;-82
2021/11/20 02:39:17;;;;;;;19.50;11.15;;;4.40;99.90;;;;;;5091314;28;20483;-81
2021/11/20 02:44:25;;;;;;;20.10;10.95;;;4.40;99.90;;;;;;5098939;28;20031;-83
2021/11/20 02:46:59;;;;;;;21.33;10.48;;;4.40;99.90;;;;;;5100605;28;20032;-80
2021/11/20 02:49:31;;;;;;;20.98;9.88;;;4.50;99.90;;;;;;5075309;28;20089;-80
2021/11/20 02:52:04;;;;;;;18.83;9.52;;;4.50;99.90;;;;;;5111933;28;20428;-81
2021/11/20 02:54:36;;;;;;;17.80;9.05;;;4.50;99.90;;;;;;5083496;28;20110;-80
2021/11/20 02:57:13;;;;;;;19.45;9.52;;;4.40;99.90;;;;;;5091332;28;20076;-79
2021/11/20 02:59:43;;;;;;;15.23;8.80;;;4.50;99.90;;;;;;5101255;28;20025;-81
2021/11/20 03:02:13;;;;;;;21.13;10.02;;;4.50;99.90;;;;;;5073530;28;20009;-82
2021/11/20 03:04:40;;;;;;;15.90;8.30;;;4.50;99.90;;;;;;5071998;28;20021;-81
2021/11/20 03:07:06;;;;;;;21.33;10.52;;;4.50;99.90;;;;;;5060414;28;20079;-81
2021/11/20 03:09:35;;;;;;;18.70;9.82;;;4.60;99.90;;;;;;5081981;28;20421;-81
2021/11/20 03:12:01;;;;;;;16.42;9.30;;;4.70;99.90;;;;;;5065110;28;20016;-81
2021/11/20 03:14:27;;;;;;;16.15;9.10;;;4.70;99.90;;;;;;5090088;28;20036;-82
2021/11/20 03:16:58;;;;;;;17.50;9.50;;;4.80;99.90;;;;;;5106896;28;20549;-80
2021/11/20 03:19:27;;;;;;;15.85;7.93;;;4.80;99.90;;;;;;5106204;28;20032;-80
2021/11/20 03:21:57;;;;;;;14.88;8.27;;;4.80;99.90;;;;;;5107615;28;20061;-81
2021/11/20 03:24:24;;;;;;;14.90;8.43;;;4.80;99.90;;;;;;5087478;28;20030;-81
2021/11/20 03:26:50;;;;;;;18.73;9.35;;;4.80;99.90;;;;;;5083791;28;20020;-80
2021/11/20 03:29:16;;;;;;;16.20;8.52;;;4.80;99.90;;;;;;5071470;28;20038;-82
2021/11/20 03:31:43;;;;;;;14.93;8.65;;;4.80;99.90;;;;;;5105273;28;20084;-80
2021/11/20 03:34:10;;;;;;;14.85;7.78;;;4.90;99.90;;;;;;5107160;28;20028;-80
2021/11/20 03:36:36;;;;;;;11.60;7.28;;;4.90;99.90;;;;;;5105319;28;20028;-80
2021/11/20 03:39:08;;;;;;;13.95;7.82;;;4.90;99.90;;;;;;5084400;28;20046;-81
2021/11/20 03:41:34;;;;;;;;;;;4.90;99.90;;;;;;5087773;28;20032;-80
2021/11/20 03:44:00;;;;;;;13.43;7.13;;;5.00;99.90;;;;;;5084342;28;19923;-82
2021/11/20 03:46:26;;;;;;;16.75;8.43;;;4.90;99.90;;;;;;5066960;28;20040;-78
2021/11/20 03:48:52;;;;;;;12.68;7.70;;;4.90;99.90;;;;;;5047274;28;20053;-81
2021/11/20 03:51:18;;;;;;;15.90;7.55;;;4.90;99.90;;;;;;5098496;28;20024;-82
2021/11/20 03:53:44;;;;;;;16.95;7.88;;;4.80;99.90;;;;;;5102406;28;20028;-81
2021/11/20 03:56:10;;;;;;;11.55;7.28;;;4.80;99.90;;;;;;5096153;28;20110;-80
2021/11/20 03:58:38;;;;;;;11.73;6.55;;;4.80;99.90;;;;;;5099985;28;20028;-81
2021/11/20 04:01:08;;;;;;;13.63;7.22;;;4.90;99.90;;;;;;5089688;28;20012;-80
2021/11/20 04:03:36;;;;;;;12.43;7.65;;;4.90;99.90;;;;;;5067375;28;20025;-80
2021/11/20 04:06:02;;;;;;;12.60;6.80;;;4.90;99.90;;;;;;5085822;28;20024;-80
2021/11/20 04:08:28;;;;;;;11.88;7.05;;;4.90;99.90;;;;;;5085349;28;20025;-79
2021/11/20 04:10:56;;;;;;;10.32;6.43;;;4.90;99.90;;;;;;5099920;28;20035;-81
2021/11/20 04:13:22;;;;;;;12.90;6.43;;;4.90;99.90;;;;;;5104082;28;20060;-82
2021/11/20 04:15:49;;;;;;;9.68;6.10;;;4.90;99.90;;;;;;5092807;28;20025;-82
2021/11/20 04:18:16;;;;;;;13.65;6.60;;;4.90;99.90;;;;;;5105255;28;20036;-80
2021/11/20 04:20:42;;;;;;;10.40;5.85;;;4.90;99.90;;;;;;5103517;28;20032;-80
2021/11/20 04:23:08;;;;;;;9.10;5.72;;;4.90;99.90;;;;;;5093192;28;20146;-80
2021/11/20 04:25:35;;;;;;;11.48;5.82;;;4.90;99.90;;;;;;5090850;28;20115;-80
2021/11/20 04:28:01;;;;;;;9.82;5.75;;;5.00;99.90;;;;;;5097310;28;20031;-81
2021/11/20 04:30:28;;;;;;;12.02;6.32;;;5.00;99.90;;;;;;5103872;28;20021;-79
2021/11/20 04:32:55;;;;;;;10.27;5.97;;;5.00;99.90;;;;;;5094948;28;20017;-81
2021/11/20 04:35:23;;;;;;;12.45;5.85;;;5.00;99.90;;;;;;5076310;28;20021;-81
2021/11/20 04:37:49;;;;;;;9.43;5.75;;;5.00;99.90;;;;;;5096245;28;20084;-80
2021/11/20 04:40:17;;;;;;;10.95;5.82;;;5.10;99.90;;;;;;5096377;28;20019;-81
2021/11/20 04:42:44;;;;;;;8.90;5.55;;;5.10;99.90;;;;;;5074320;28;20029;-79
2021/11/20 04:45:13;;;;;;;12.88;6.90;;;5.10;99.90;;;;;;5082561;28;20024;-79
2021/11/20 04:47:39;;;;;;;11.88;5.63;;;5.10;99.90;;;;;;5088005;28;20024;-81
2021/11/20 04:50:07;;;;;;;9.63;5.43;;;5.10;99.90;;;;;;5107594;28;20338;-81
2021/11/20 04:52:33;;;;;;;8.68;5.13;;;5.20;99.90;;;;;;5084933;28;20055;-81
2021/11/20 04:54:58;;;;;;;10.63;5.60;;;5.20;99.90;;;;;;5084276;28;20025;-81
2021/11/20 04:57:24;;;;;;;7.85;5.38;;;5.30;99.90;;;;;;5097456;28;20024;-79
2021/11/20 04:59:50;;;;;;;7.07;4.65;;;5.30;99.90;;;;;;5087462;28;20424;-80
2021/11/20 05:02:16;;;;;;;8.90;5.03;;;5.20;99.90;;;;;;5095147;28;20024;-79
2021/11/20 05:04:42;;;;;;;9.98;5.97;;;5.20;99.90;;;;;;5081781;28;20370;-81
2021/11/20 05:07:08;;;;;;;7.78;5.45;;;5.20;99.90;;;;;;5084653;28;20129;-83
2021/11/20 05:09:34;;;;;;;9.85;5.93;;;5.20;99.90;;;;;;5100888;28;20012;-81
2021/11/20 05:12:01;;;;;;;8.32;5.55;;;5.10;99.90;;;;;;5084898;28;20044;-83
2021/11/20 05:14:27;;;;;;;5.95;4.57;;;5.20;99.90;;;;;;5103337;28;20353;-81
2021/11/20 05:16:53;;;;;;;9.05;5.57;;;5.20;99.90;;;;;;5086110;28;20032;-81
2021/11/20 05:19:19;;;;;;;10.93;6.53;;;5.30;99.90;;;;;;5102611;28;20428;-82
2021/11/20 05:21:45;;;;;;;8.90;5.88;;;5.30;99.90;;;;;;5083675;28;20031;-82
2021/11/20 05:24:11;;;;;;;8.15;5.28;;;5.30;99.90;;;;;;5086442;28;20384;-79
2021/11/20 05:26:36;;;;;;;5.18;4.57;;;5.30;99.90;;;;;;5070807;28;20032;-81
2021/11/20 05:29:08;;;;;;;6.32;4.15;;;5.20;99.90;;;;;;5083726;28;20039;-81
2021/11/20 05:31:36;;;;;;;6.78;4.82;;;5.20;99.90;;;;;;5087642;28;20028;-82
2021/11/20 05:34:03;;;;;;;7.20;4.95;;;5.20;99.90;;;;;;5101651;28;20035;-81
2021/11/20 05:36:32;;;;;;;6.60;4.32;;;5.10;99.90;;;;;;5103221;28;20024;-80
2021/11/20 05:38:59;;;;;;;7.10;4.47;;;5.10;99.90;;;;;;5107544;28;20027;-79
2021/11/20 05:41:26;;;;;;;5.63;4.15;;;5.10;99.90;;;;;;5104664;28;20081;-81
2021/11/20 05:43:53;;;;;;;6.65;4.60;;;5.20;99.90;;;;;;5105132;28;20028;-81
2021/11/20 05:46:21;;;;;;;5.50;4.28;;;5.20;99.90;;;;;;5079328;28;20031;-80
2021/11/20 05:48:47;;;;;;;5.40;4.00;;;5.30;99.90;;;;;;5091173;28;20025;-80
2021/11/20 05:51:13;;;;;;;12.23;5.78;;;5.40;99.90;;;;;;5066432;28;20012;-81
2021/11/20 05:53:39;;;;;;;7.88;4.85;;;5.40;99.90;;;;;;5074963;22;20025;-83
2021/11/20 05:56:06;;;;;;;6.05;4.55;;;5.40;99.90;;;;;;5060879;28;20024;-83
2021/11/20 05:58:34;;;;;;;7.80;4.40;;;5.40;99.90;;;;;;5059790;28;20072;-82
2021/11/20 06:01:05;;;;;;;6.85;4.38;;;5.40;99.90;;;;;;5066797;28;20103;-84
2021/11/20 06:03:32;;;;;;;7.15;4.60;;;5.50;99.90;;;;;;5061408;28;20509;-80
2021/11/20 06:05:58;;;;;;;5.93;4.68;;;5.50;99.90;;;;;;5059454;28;20406;-80
2021/11/20 06:08:24;;;;;;;5.88;4.55;;;5.60;99.90;;;;;;5059589;28;20033;-80
2021/11/20 06:10:53;;;;;;;6.13;4.53;;;5.60;99.90;;;;;;5060158;28;20031;-81
2021/11/20 06:13:20;;;;;;;6.38;4.45;;;5.50;99.90;;;;;;5060751;28;20096;-80
2021/11/20 06:15:46;;;;;;;4.97;4.00;;;5.60;99.90;;;;;;5059692;28;20032;-80
2021/11/20 06:18:13;;;;;;;7.45;4.28;;;5.60;99.90;;;;;;5060233;28;20385;-80
2021/11/20 06:20:41;;;;;;;5.28;3.75;;;5.60;99.90;;;;;;5060671;28;20017;-80
2021/11/20 06:23:08;;;;;;;5.18;4.05;;;5.70;99.90;;;;;;5042767;28;20025;-79
2021/11/20 06:25:33;;;;;;;7.35;4.05;;;5.60;99.90;;;;;;5060750;28;20398;-79
2021/11/20 06:27:59;;;;;;;5.40;4.00;;;5.60;99.90;;;;;;5047024;28;20025;-80
2021/11/20 06:30:27;;;;;;;7.85;5.30;;;5.60;99.90;;;;;;5065076;28;20033;-79
2021/11/20 06:32:55;;;;;;;5.20;3.60;;;5.60;99.90;;;;;;5060844;28;20024;-80
2021/11/20 06:35:25;;;;;;;5.63;4.22;;;5.60;99.90;;;;;;5059681;28;20056;-80
2021/11/20 06:37:54;;;;;;;5.78;4.30;;;5.60;99.90;;;;;;5042806;28;20029;-80
2021/11/20 06:40:29;;;;;;;5.65;3.92;;;5.60;99.90;;;;;;5059303;28;20033;-80
2021/11/20 06:42:55;;;;;;;5.05;3.55;;;5.70;99.90;;;;;;5060056;28;20029;-80
2021/11/20 06:45:25;;;;;;;4.97;4.07;;;5.70;99.90;;;;;;5059240;28;20033;-79
2021/11/20 06:47:51;;;;;;;6.35;4.38;;;5.70;99.90;;;;;;5041101;28;20060;-80
2021/11/20 06:50:18;;;;;;;5.15;3.63;;;5.70;99.90;;;;;;5061070;28;20074;-79
2021/11/20 06:52:44;;;;;;;5.55;3.80;;;5.70;99.90;;;;;;5060838;28;20037;-80
2021/11/20 06:55:13;;;;;;;5.20;3.90;;;5.70;99.90;;;;;;5062908;28;20029;-80
2021/11/20 07:00:27;;;;;;;4.85;3.67;;;5.80;99.90;;;;;;5064266;28;20036;-80
2021/11/20 07:03:00;;;;;;;4.18;3.08;;;5.90;99.90;;;;;;5069376;28;20039;-79
2021/11/20 07:05:32;;;;;;;3.08;2.72;;;5.90;99.90;;;;;;5077292;28;20044;-80
2021/11/20 07:08:00;;;;;;;4.53;3.25;;;5.90;99.90;;;;;;5062883;28;20074;-79
2021/11/20 07:10:28;;;;;;;3.88;3.10;;;6.00;99.90;;;;;;5062660;28;20035;-80
2021/11/20 07:12:58;;;;;;;3.45;3.13;;;6.00;99.90;;;;;;5063605;28;20096;-80
2021/11/20 07:15:25;;;;;;;3.67;2.78;;;6.10;99.90;;;;;;5064408;28;20025;-80
2021/11/20 07:17:51;;;;;;;3.58;3.08;;;6.10;99.90;;;;;;5064945;28;20031;-80
2021/11/20 07:20:21;;;;;;;5.53;3.90;;;6.20;99.90;;;;;;5069529;28;20323;-79
2021/11/20 07:22:48;;;;;;;4.20;3.13;;;6.20;99.90;;;;;;5067947;28;20123;-80
2021/11/20 07:25:18;;;;;;;4.07;3.13;;;6.20;99.90;;;;;;5064373;28;20051;-80
2021/11/20 07:27:48;;;;;;;4.47;3.50;;;6.20;99.90;;;;;;5061819;28;20058;-80
2021/11/20 07:30:18;;;;;;;4.60;3.42;;;6.20;99.90;;;;;;5061447;28;20103;-80
2021/11/20 07:32:45;;;;;;;4.57;3.58;;;6.30;99.90;;;;;;5060789;28;20446;-79
2021/11/20 07:35:12;;;;;;;4.05;3.20;;;6.30;99.90;;;;;;5060305;28;20041;-79
2021/11/20 07:37:39;;;;;;;5.38;3.30;;;6.40;99.90;;;;;;5061134;28;20361;-80
2021/11/20 07:40:06;;;;;;;3.90;3.45;;;6.50;99.90;;;;;;5063087;28;20075;-81
2021/11/20 07:42:32;;;;;;;3.30;2.92;;;6.50;99.90;;;;;;5062697;28;20029;-80
2021/11/20 07:45:02;;;;;;;3.85;3.03;;;6.40;99.90;;;;;;5063656;28;20032;-80
2021/11/20 07:47:29;;;;;;;2.92;2.63;;;6.50;99.90;;;;;;5045497;28;20112;-79
2021/11/20 07:49:55;;;;;;;2.97;2.67;;;6.50;99.90;;;;;;5044463;28;20029;-81
2021/11/20 07:52:21;;;;;;;4.25;2.67;;;6.60;99.90;;;;;;5061455;28;20035;-80
2021/11/20 07:54:47;;;;;;;3.70;2.85;;;6.70;99.90;;;;;;5061746;28;20036;-80
2021/11/20 07:57:12;;;;;;;4.05;3.33;;;6.70;99.90;;;;;;5061956;28;20023;-80
2021/11/20 07:59:39;;;;;;;3.92;3.35;;;6.70;99.90;;;;;;5045241;28;20505;-79
2021/11/20 08:02:07;;;;;;;5.88;3.72;;;6.60;99.90;;;;;;5060283;28;20032;-79
2021/11/20 08:04:38;;;;;;;5.35;3.55;;;6.60;99.90;;;;;;5062827;28;20100;-80
2021/11/20 08:07:05;;;;;;;3.40;2.88;;;6.60;99.90;;;;;;5062363;28;20013;-80
2021/11/20 08:09:32;;;;;;;3.78;3.30;;;6.60;99.90;;;;;;5062038;28;20048;-80
2021/11/20 08:11:59;;;;;;;4.63;3.17;;;6.60;99.90;;;;;;5060948;28;20100;-80
2021/11/20 08:14:27;;;;;;;4.80;3.28;;;6.70;99.90;;;;;;5062613;28;20033;-80
2021/11/20 08:16:53;;;;;;;4.90;2.90;;;6.70;99.90;;;;;;5046627;28;20033;-80
2021/11/20 08:19:19;;;;;;;4.07;3.45;;;6.80;99.90;;;;;;5067583;28;20029;-80
2021/11/20 08:21:45;;;;;;;3.08;2.75;;;6.90;99.90;;;;;;5067754;28;20029;-79
2021/11/20 08:24:11;;;;;;;2.90;2.33;;;7.00;99.90;;;;;;5052011;28;20028;-81
2021/11/20 08:26:39;;;;;;;3.47;2.40;;;7.10;99.90;;;;;;5062323;28;20025;-80
2021/11/20 08:29:18;;;;;;;3.60;2.88;;;7.20;99.90;;;;;;5063856;28;20033;-81
2021/11/20 08:31:47;;;;;;;5.82;3.10;;;7.30;99.90;;;;;;5042969;28;20029;-80
2021/11/20 08:34:16;;;;;;;6.72;3.33;;;7.30;99.90;;;;;;5039092;28;20032;-80
2021/11/20 08:36:44;;;;;;;3.25;2.95;;;7.30;99.90;;;;;;5063042;28;20040;-80
2021/11/20 08:39:14;;;;;;;5.22;3.42;;;7.40;99.90;;;;;;5044050;28;20032;-80
2021/11/20 08:41:41;;;;;;;6.10;3.08;;;7.50;99.90;;;;;;5053415;28;20032;-80
2021/11/20 08:44:07;;;;;;;6.13;4.05;;;7.60;99.90;;;;;;5062178;28;20051;-80
2021/11/20 08:46:33;;;;;;;4.32;3.33;;;7.70;99.90;;;;;;5061326;28;20025;-80
2021/11/20 08:48:59;;;;;;;6.00;4.10;;;7.70;99.90;;;;;;5062543;28;20020;-80
2021/11/20 08:51:26;;;;;;;4.95;3.35;;;7.80;99.90;;;;;;5061916;28;20084;-79
2021/11/20 08:53:53;;;;;;;5.50;3.45;;;7.90;99.90;;;;;;5060799;28;20025;-80
2021/11/20 08:56:20;;;;;;;4.68;3.85;;;7.90;99.90;;;;;;5059729;28;20025;-81
2021/11/20 08:58:46;;;;;;;5.57;3.58;;;7.80;99.90;;;;;;5059949;28;20051;-81
2021/11/20 09:01:23;;;;;;;6.45;4.25;;;7.80;99.90;;;;;;5060286;28;20044;-80
2021/11/20 09:04:03;;;;;;;6.80;4.25;;;7.60;99.90;;;;;;5059177;28;20120;-80
2021/11/20 09:06:29;;;;;;;6.05;4.00;;;7.50;99.90;;;;;;5059136;28;20033;-81
2021/11/20 09:09:07;;;;;;;4.63;3.45;;;7.50;99.90;;;;;;5070196;28;20036;-79
2021/11/20 09:12:11;;;;;;;4.75;3.10;;;7.60;99.90;;;;;;5070300;28;20025;-79
2021/11/20 09:14:43;;;;;;;4.18;3.15;;;7.90;99.90;;;;;;5057169;28;20021;-79
2021/11/20 09:17:12;;;;;;;4.07;2.63;;;8.10;99.90;;;;;;5058835;28;20029;-80
2021/11/20 09:19:38;;;;;;;4.43;3.03;;;8.20;99.80;;;;;;5059321;28;20037;-80
2021/11/20 09:22:06;;;;;;;4.43;3.03;;;8.30;99.70;;;;;;5059778;28;20444;-79
2021/11/20 09:24:35;;;;;;;3.40;2.50;;;8.40;99.30;;;;;;5066709;28;20090;-79
2021/11/20 09:27:02;;;;;;;2.65;2.10;;;8.50;99.00;;;;;;5069545;28;20047;-79
2021/11/20 09:29:29;;;;;;;2.88;2.58;;;8.50;98.60;;;;;;5063639;28;20029;-80
2021/11/20 09:31:55;;;;;;;3.97;2.60;;;8.60;98.50;;;;;;5074793;28;20005;-80
2021/11/20 09:34:23;;;;;;;5.13;2.88;;;8.60;98.30;;;;;;5064086;28;20051;-80
2021/11/20 09:36:52;;;;;;;4.00;2.65;;;8.70;98.00;;;;;;5061827;28;20029;-80
2021/11/20 09:39:20;;;;;;;5.30;2.80;;;8.80;97.80;;;;;;5062045;28;20017;-80
2021/11/20 09:42:19;;;;;;;2.03;1.77;;;9.00;97.50;;;;;;5043984;28;20106;-81
2021/11/20 09:44:49;;;;;;;2.78;2.38;;;9.00;97.20;;;;;;5062052;28;20435;-80
2021/11/20 09:47:36;;;;;;;4.25;3.30;;;9.00;96.90;;;;;;5069540;28;20029;-80
2021/11/20 09:50:20;;;;;;;6.93;3.35;;;9.10;96.80;;;;;;5073180;28;20025;-80
2021/11/20 09:52:48;;;;;;;4.35;3.03;;;9.00;96.10;;;;;;5073339;28;20401;-80
2021/11/20 09:55:21;;;;;;;4.13;3.00;;;8.70;96.60;;;;;;5071455;28;20025;-80
2021/11/20 09:57:52;;;;;;;3.05;2.45;;;8.80;97.20;;;;;;5053964;28;20032;-80
2021/11/20 10:00:46;;;;;;;5.22;3.08;;;9.00;97.10;;;;;;5063726;28;20024;-79
2021/11/20 10:03:40;;;;;;;4.20;3.38;;;9.00;96.00;;;;;;5060504;28;20029;-80
2021/11/20 10:06:10;;;;;;;3.20;2.65;;;8.70;96.00;;;;;;5043362;28;20033;-80
2021/11/20 10:08:40;;;;;;;2.80;2.38;;;8.60;96.60;;;;;;5060604;28;20044;-78
2021/11/20 10:11:08;;;;;;;3.20;2.60;;;8.60;96.70;;;;;;5060510;28;20021;-80
2021/11/20 10:13:49;;;;;;;2.35;2.15;;;8.50;96.40;;;;;;5042938;28;20017;-80
2021/11/20 10:16:23;;;;;;;1.67;1.48;;;8.50;96.60;;;;;;5060314;28;20085;-80
2021/11/20 10:19:03;;;;;;;1.35;1.20;;;8.50;96.50;;;;;;5060562;28;20021;-80
2021/11/20 10:21:34;;;;;;;2.15;1.35;;;8.50;96.10;;;;;;5059654;28;20033;-81
2021/11/20 10:24:17;;;;;;;1.27;1.17;;;8.50;96.20;;;;;;5059417;28;20083;-79
2021/11/20 10:27:23;;;;;;;1.65;0.90;;;8.70;96.40;;;;;;5055816;28;20026;-80
2021/11/20 10:30:29;;;;;;;0.63;0.63;;;8.60;95.20;;;;;;5036917;28;20075;-80
2021/11/20 10:33:06;;;;;;;1.35;0.90;;;8.60;94.70;;;;;;5042901;28;20116;-80
2021/11/20 10:35:37;;;;;;;0.73;0.73;;;8.50;95.10;;;;;;5060786;28;20033;-81
2021/11/20 10:38:20;;;;;;;1.02;0.55;;;8.50;95.20;;;;;;5060126;28;20036;-80
2021/11/20 10:41:20;;;;;;;0.63;0.63;;;8.60;95.20;;;;;;5042615;28;20052;-81
2021/11/20 10:44:06;;;;;;;1.02;0.80;;;8.60;94.90;;;;;;5039507;28;20125;-80
2021/11/20 10:46:51;;;;;;;0.93;0.82;;;8.70;94.90;;;;;;5063043;28;20025;-80
2021/11/20 10:49:35;;;;;;;1.23;1.13;;;8.80;94.90;;;;;;5043399;28;20029;-81
2021/11/20 10:52:07;;;;;;;1.10;1.00;;;9.10;94.60;;;;;;5043200;28;20032;-81
2021/11/20 10:54:36;;;;;;;1.20;1.10;;;9.30;94.10;;;;;;5061457;28;20021;-79
2021/11/20 10:57:12;;;;;;;1.35;1.00;;;9.50;93.70;;;;;;5061742;28;20051;-80
2021/11/20 10:59:41;;;;;;;1.73;1.40;;;9.60;93.20;;;;;;5062635;28;20032;-80
2021/11/20 11:02:29;;;;;;;1.10;1.00;;;9.70;92.90;;;;;;5063954;28;20052;-81
2021/11/20 11:05:04;;;;;;;1.48;1.30;;;9.80;92.70;;;;;;5051961;28;20092;-80
2021/11/20 11:07:38;;;;;;;1.08;0.98;;;9.80;92.20;;;;;;5068943;28;20032;-80
2021/11/20 11:10:11;;;;;;;1.30;1.20;;;9.60;92.10;;;;;;5067715;28;20020;-80
2021/11/20 11:12:43;;;;;;;0.93;0.93;;;9.60;92.50;;;;;;5062390;28;20021;-80
2021/11/20 11:15:14;;;;;;;1.10;0.80;;;9.60;92.50;;;;;;5072713;28;20053;-81
2021/11/20 11:17:58;;;;;;;1.55;1.35;;;9.60;92.40;;;;;;5065979;28;20033;-81
2021/11/20 11:20:33;;;;;;;2.65;2.10;;;9.50;92.30;;;;;;5062139;28;20112;-83
2021/11/20 11:23:35;;;;;;;3.10;2.35;;;9.40;92.30;;;;;;5065399;28;20055;-81
2021/11/20 11:26:08;;;;;;;2.25;1.80;;;9.20;92.80;;;;;;5027764;28;20068;-79
2021/11/20 11:28:37;;;;;;;1.85;1.67;;;9.10;93.10;;;;;;5060855;28;20022;-81
2021/11/20 11:31:22;;;;;;;1.70;1.50;;;9.10;93.30;;;;;;5060166;28;20055;-81
2021/11/20 11:33:55;;;;;;;1.60;1.50;;;9.30;93.50;;;;;;5060688;28;20024;-80
2021/11/20 11:36:25;;;;;;;2.40;1.88;;;9.30;93.10;;;;;;5058848;28;20056;-80
2021/11/20 11:39:19;;;;;;;1.85;1.67;;;9.30;93.20;;;;;;5061519;28;20072;-79
2021/11/20 11:41:53;;;;;;;1.95;1.58;;;9.40;92.60;;;;;;5063075;28;20036;-78
2021/11/20 11:44:36;;;;;;;1.67;1.58;;;9.50;92.50;;;;;;5064044;28;20028;-79
2021/11/20 11:47:23;;;;;;;2.28;1.60;;;9.50;92.50;;;;;;5064430;28;20037;-80
2021/11/20 11:49:49;;;;;;;1.63;1.30;;;9.50;92.60;;;;;;5067410;28;20025;-79
2021/11/20 11:55:28;;;;;;;1.80;1.70;;;9.80;92.00;;;;;;5043182;28;20046;-80
2021/11/20 11:58:19;;;;;;;2.15;1.95;;;9.70;91.80;;;;;;5031715;28;20025;-78
2021/11/20 12:01:08;;;;;;;1.70;1.60;;;9.70;91.60;;;;;;5046813;28;20070;-80
2021/11/20 12:03:46;;;;;;;3.38;1.90;;;9.70;91.60;;;;;;5043160;28;20029;-80
2021/11/20 12:06:49;;;;;;;2.35;2.15;;;9.50;91.60;;;;;;5042614;28;20043;-80
2021/11/20 12:09:21;;;;;;;2.97;1.98;;;9.30;92.10;;;;;;5044134;28;20041;-79
2021/11/20 12:11:48;;;;;;;2.13;1.92;;;9.10;92.50;;;;;;5025106;28;20033;-77
2021/11/20 12:14:14;;;;;;;1.73;1.60;;;9.10;93.00;;;;;;5043509;28;20048;-82
2021/11/20 12:16:59;;;;;;;2.97;1.65;;;9.10;93.20;;;;;;5024008;28;20038;-81
2021/11/20 12:19:39;;;;;;;1.80;1.60;;;9.10;93.10;;;;;;5043574;28;20068;-80
2021/11/20 12:22:22;;;;;;;1.40;1.30;;;9.10;93.00;;;;;;5026055;28;20389;-79
2021/11/20 12:25:00;;;;;;;1.67;1.50;;;9.20;93.10;;;;;;5025487;28;20037;-80
2021/11/20 12:27:29;;;;;;;1.33;1.23;;;9.20;93.20;;;;;;5058759;28;20456;-81
2021/11/20 12:30:32;;;;;;;1.40;1.30;;;9.20;93.10;;;;;;5045778;28;20031;-81
2021/11/20 12:33:26;;;;;;;4.20;2.10;;;9.40;93.00;;;;;;5024185;28;20022;-80
2021/11/20 12:36:09;;;;;;;2.03;1.80;;;9.40;92.40;;;;;;5039342;28;20353;-80
2021/11/20 12:39:02;;;;;;;2.13;1.95;;;9.50;92.40;;;;;;5024314;28;20040;-79
2021/11/20 12:41:56;;;;;;;2.30;2.10;;;9.30;91.90;;;;;;5023099;28;20096;-80
2021/11/20 12:44:47;;;;;;;2.30;2.10;;;9.20;92.50;;;;;;5043453;28;20025;-78
2021/11/20 12:47:51;;;;;;;4.35;2.20;;;9.20;92.40;;;;;;5022368;28;20034;-78
2021/11/20 12:50:29;;;;;;;1.73;1.42;;;9.20;92.40;;;;;;5044917;28;20020;-78
2021/11/20 12:53:22;;;;;;;2.05;1.70;;;9.20;92.20;;;;;;5046417;28;20040;-78
2021/11/20 12:56:27;;;;;;;1.80;1.70;;;9.20;92.20;;;;;;5044224;28;20060;-78
2021/11/20 12:59:02;;;;;;;2.85;1.95;;;9.30;92.10;;;;;;5045489;28;20025;-78
2021/11/20 13:01:40;;;;;;;2.22;1.88;;;9.30;92.20;;;;;;5026235;28;20568;-78
2021/11/20 13:04:22;;;;;;;2.13;1.92;;;9.40;92.00;;;;;;5051052;28;20025;-78
2021/11/20 13:06:54;;;;;;;2.53;1.77;;;9.40;92.10;;;;;;5054893;28;20081;-79
2021/11/20 13:09:48;;;;;;;3.20;2.90;;;9.40;92.10;;;;;;5035803;28;20025;-78
2021/11/20 13:12:35;;;;;;;3.45;2.88;;;9.30;91.50;;;;;;5043060;28;20117;-79
2021/11/20 13:15:19;;;;;;;4.45;3.20;;;9.00;91.90;;;;;;5043907;28;20018;-79
2021/11/20 13:17:58;;;;;;;3.08;2.78;;;8.80;92.60;;;;;;5037843;28;20026;-78
2021/11/20 13:20:27;;;;;;;5.55;3.92;;;8.70;93.20;;;;;;5026939;28;20035;-79
2021/11/20 13:23:05;;;;;;;6.03;3.50;;;8.60;93.30;;;;;;5024758;28;20041;-79
2021/11/20 13:25:31;;;;;;;4.60;3.28;;;8.50;93.80;;;;;;5049280;28;20100;-79
2021/11/20 13:27:59;;;;;;;4.57;3.10;;;8.60;94.20;;;;;;5028806;28;20037;-80
2021/11/20 13:30:29;;;;;;;4.30;3.15;;;8.60;94.10;;;;;;5036573;28;20005;-80